createdAt,value
2017-11-12T00:00:43.524Z,7.20
2017-11-12T00:03:11.323Z,7.10
2017-11-12T00:05:39.080Z,7.20
2017-11-12T00:08:06.947Z,7.20
2017-11-12T00:10:34.912Z,7.20
2017-11-12T00:13:02.689Z,7.10
2017-11-12T00:15:30.514Z,7.20
2017-11-12T00:17:58.355Z,7.20
2017-11-12T00:20:26.831Z,7.20
2017-11-12T00:22:55.338Z,7.20
2017-11-12T00:25:23.050Z,7.20
2017-11-12T00:27:50.901Z,7.20
2017-11-12T00:30:19.305Z,7.20
2017-11-12T00:32:47.318Z,7.20
2017-11-12T00:35:15.099Z,7.10
2017-11-12T00:37:43.186Z,7.10
2017-11-12T00:40:10.973Z,7.10
2017-11-12T00:42:38.811Z,7.10
2017-11-12T00:45:06.779Z,7.10
2017-11-12T00:47:34.506Z,7.10
2017-11-12T00:50:02.505Z,7.10
2017-11-12T00:52:30.492Z,7.10
2017-11-12T00:54:58.333Z,7.00
2017-11-12T00:57:26.118Z,7.00
2017-11-12T00:59:54.050Z,7.00
2017-11-12T01:02:21.856Z,7.00
2017-11-12T01:04:49.556Z,6.90
2017-11-12T01:07:18.038Z,6.90
2017-11-12T01:09:46.574Z,6.90
2017-11-12T01:12:14.467Z,6.90
2017-11-12T01:14:42.296Z,6.90
2017-11-12T01:17:10.285Z,6.90
2017-11-12T01:19:38.855Z,7.00
2017-11-12T01:22:07.027Z,6.90
2017-11-12T01:24:34.838Z,7.00
2017-11-12T01:27:03.335Z,7.00
2017-11-12T01:29:31.860Z,7.00
2017-11-12T01:31:59.752Z,7.00
2017-11-12T01:34:27.591Z,7.00
2017-11-12T01:36:56.094Z,7.00
2017-11-12T01:39:24.036Z,7.00
2017-11-12T01:41:51.762Z,7.10
2017-11-12T01:46:52.664Z,7.10
2017-11-12T01:49:20.434Z,7.20
2017-11-12T01:51:48.282Z,7.10
2017-11-12T01:54:16.362Z,7.10
2017-11-12T01:56:44.733Z,7.10
2017-11-12T01:59:12.462Z,7.10
2017-11-12T02:01:40.226Z,7.20
2017-11-12T02:04:07.991Z,7.10
2017-11-12T02:06:35.737Z,7.10
2017-11-12T02:09:04.388Z,7.10
2017-11-12T02:11:32.107Z,7.10
2017-11-12T02:14:00.005Z,7.20
2017-11-12T02:16:27.987Z,7.20
2017-11-12T02:18:55.742Z,7.20
2017-11-12T02:21:23.736Z,7.20
2017-11-12T02:23:51.798Z,7.20
2017-11-12T02:26:19.768Z,7.20
2017-11-12T02:28:47.691Z,7.30
2017-11-12T02:31:15.487Z,7.30
2017-11-12T02:33:43.580Z,7.20
2017-11-12T02:36:11.545Z,7.30
2017-11-12T02:38:39.612Z,7.30
2017-11-12T02:41:07.421Z,7.20
2017-11-12T02:43:35.347Z,7.20
2017-11-12T02:46:03.297Z,7.30
2017-11-12T02:48:31.775Z,7.20
2017-11-12T02:51:00.052Z,7.20
2017-11-12T02:53:28.034Z,7.20
2017-11-12T02:55:55.989Z,7.20
2017-11-12T02:58:23.974Z,7.20
2017-11-12T03:00:51.942Z,7.20
2017-11-12T03:03:20.001Z,7.20
2017-11-12T03:05:48.072Z,7.20
2017-11-12T03:08:15.957Z,7.20
2017-11-12T03:10:43.815Z,7.20
2017-11-12T03:13:12.625Z,7.20
2017-11-12T03:15:42.083Z,7.20
2017-11-12T03:18:10.007Z,7.20
2017-11-12T03:20:38.869Z,7.20
2017-11-12T03:23:06.653Z,7.20
2017-11-12T03:25:36.456Z,7.20
2017-11-12T03:28:05.955Z,7.20
2017-11-12T03:30:35.674Z,7.20
2017-11-12T03:33:03.527Z,7.20
2017-11-12T03:35:32.318Z,7.20
2017-11-12T03:38:00.631Z,7.20
2017-11-12T03:40:29.172Z,7.10
2017-11-12T03:42:57.223Z,7.10
2017-11-12T03:45:25.109Z,7.20
2017-11-12T03:47:53.116Z,7.20
2017-11-12T03:50:31.930Z,7.20
2017-11-12T03:53:00.747Z,7.20
2017-11-12T03:55:28.554Z,7.20
2017-11-12T03:57:57.020Z,7.20
2017-11-12T04:00:25.020Z,7.20
2017-11-12T04:02:53.056Z,7.20
2017-11-12T04:05:20.890Z,7.20
2017-11-12T04:07:48.707Z,7.20
2017-11-12T04:10:17.001Z,7.20
2017-11-12T04:12:44.932Z,7.20
2017-11-12T04:15:13.122Z,7.20
2017-11-12T04:17:40.996Z,7.20
2017-11-12T04:20:08.962Z,7.30
2017-11-12T04:22:36.707Z,7.30
2017-11-12T04:25:04.568Z,7.40
2017-11-12T04:27:32.517Z,7.40
2017-11-12T04:30:00.279Z,7.40
2017-11-12T04:32:28.250Z,7.40
2017-11-12T04:34:56.054Z,7.40
2017-11-12T04:37:23.876Z,7.50
2017-11-12T04:39:51.679Z,7.40
2017-11-12T04:42:19.448Z,7.50
2017-11-12T04:44:47.312Z,7.50
2017-11-12T04:47:15.079Z,7.50
2017-11-12T04:49:42.947Z,7.50
2017-11-12T04:52:10.797Z,7.50
2017-11-12T04:54:38.580Z,7.50
2017-11-12T04:57:06.425Z,7.50
2017-11-12T04:59:34.227Z,7.60
2017-11-12T05:02:02.218Z,7.60
2017-11-12T05:04:30.044Z,7.70
2017-11-12T05:06:57.864Z,7.60
2017-11-12T05:09:25.668Z,7.70
2017-11-12T05:11:53.746Z,7.70
2017-11-12T05:14:21.612Z,7.70
2017-11-12T05:16:49.690Z,7.80
2017-11-12T05:19:17.548Z,7.80
2017-11-12T05:21:45.413Z,7.80
2017-11-12T05:24:13.170Z,7.80
2017-11-12T05:26:40.945Z,7.70
2017-11-12T05:29:09.001Z,7.70
2017-11-12T05:31:37.168Z,7.70
2017-11-12T05:34:05.035Z,7.70
2017-11-12T05:36:33.109Z,7.60
2017-11-12T05:39:00.940Z,7.60
2017-11-12T05:41:28.706Z,7.70
2017-11-12T05:43:56.622Z,7.70
2017-11-12T05:46:25.883Z,7.80
2017-11-12T05:48:53.696Z,7.80
2017-11-12T05:51:21.654Z,7.70
2017-11-12T05:53:49.719Z,7.80
2017-11-12T05:56:17.597Z,7.80
2017-11-12T05:58:45.462Z,7.80
2017-11-12T06:01:13.950Z,7.80
2017-11-12T06:03:41.797Z,7.80
2017-11-12T06:06:09.670Z,7.80
2017-11-12T06:08:37.503Z,7.80
2017-11-12T06:11:05.604Z,7.90
2017-11-12T06:13:33.780Z,7.80
2017-11-12T06:16:01.609Z,7.80
2017-11-12T06:18:29.514Z,7.80
2017-11-12T06:20:57.363Z,7.80
2017-11-12T06:23:25.253Z,7.70
2017-11-12T06:25:53.105Z,7.70
2017-11-12T06:28:20.980Z,7.70
2017-11-12T06:30:49.614Z,7.70
2017-11-12T06:33:17.627Z,7.70
2017-11-12T06:35:45.705Z,7.70
2017-11-12T06:38:13.657Z,7.70
2017-11-12T06:40:41.540Z,7.70
2017-11-12T06:43:09.710Z,7.70
2017-11-12T06:45:37.535Z,7.70
2017-11-12T06:48:05.356Z,7.60
2017-11-12T06:50:33.203Z,7.60
2017-11-12T06:53:00.971Z,7.50
2017-11-12T06:55:28.757Z,7.50
2017-11-12T06:57:56.692Z,7.40
2017-11-12T07:00:24.682Z,7.40
2017-11-12T07:02:53.253Z,7.40
2017-11-12T07:05:21.732Z,7.40
2017-11-12T07:07:49.612Z,7.50
2017-11-12T07:10:17.457Z,7.50
2017-11-12T07:12:45.241Z,7.50
2017-11-12T07:15:13.192Z,7.50
2017-11-12T07:17:41.340Z,7.50
2017-11-12T07:20:09.261Z,7.50
2017-11-12T07:22:37.093Z,7.50
2017-11-12T07:25:04.932Z,7.50
2017-11-12T07:27:32.736Z,7.60
2017-11-12T07:30:00.593Z,7.60
2017-11-12T07:32:28.562Z,7.60
2017-11-12T07:34:56.607Z,7.60
2017-11-12T07:37:24.513Z,7.60
2017-11-12T07:39:52.489Z,7.60
2017-11-12T07:42:20.600Z,7.60
2017-11-12T07:44:49.344Z,7.60
2017-11-12T07:47:17.320Z,7.60
2017-11-12T07:49:45.163Z,7.70
2017-11-12T07:52:13.859Z,7.70
2017-11-12T07:54:41.679Z,7.70
2017-11-12T07:57:09.517Z,7.70
2017-11-12T07:59:39.291Z,7.60
2017-11-12T08:02:07.174Z,7.60
2017-11-12T08:04:35.045Z,7.60
2017-11-12T08:07:02.805Z,7.60
2017-11-12T08:09:30.768Z,7.60
2017-11-12T08:11:58.645Z,7.60
2017-11-12T08:14:26.591Z,7.60
2017-11-12T08:16:54.408Z,7.60
2017-11-12T08:19:23.039Z,7.70
2017-11-12T08:21:50.825Z,7.70
2017-11-12T08:24:18.691Z,7.70
2017-11-12T08:26:47.273Z,7.80
2017-11-12T08:29:15.256Z,7.80
2017-11-12T08:31:43.315Z,7.80
2017-11-12T08:34:11.274Z,7.90
2017-11-12T08:36:39.644Z,7.80
2017-11-12T08:39:07.525Z,7.90
2017-11-12T08:41:35.366Z,7.90
2017-11-12T08:44:03.343Z,7.90
2017-11-12T08:46:31.222Z,8.00
2017-11-12T08:48:59.215Z,8.10
2017-11-12T08:51:27.984Z,8.20
2017-11-12T08:53:55.852Z,8.20
2017-11-12T08:56:23.899Z,8.20
2017-11-12T08:58:51.806Z,8.20
2017-11-12T09:01:19.650Z,8.30
2017-11-12T09:03:47.605Z,8.30
2017-11-12T09:06:15.505Z,8.30
2017-11-12T09:08:43.437Z,8.30
2017-11-12T09:11:12.084Z,8.40
2017-11-12T09:13:40.120Z,8.40
2017-11-12T09:16:08.049Z,8.40
2017-11-12T09:18:36.168Z,8.40
2017-11-12T09:21:04.766Z,8.40
2017-11-12T09:23:33.418Z,8.50
2017-11-12T09:26:01.282Z,8.40
2017-11-12T09:28:29.255Z,8.50
2017-11-12T09:30:57.034Z,8.50
2017-11-12T09:33:24.969Z,8.70
2017-11-12T09:35:52.783Z,8.70
2017-11-12T09:38:22.259Z,8.70
2017-11-12T09:40:50.124Z,8.70
2017-11-12T09:43:17.984Z,8.70
2017-11-12T09:45:45.939Z,8.70
2017-11-12T09:48:13.918Z,8.60
2017-11-12T09:50:41.793Z,8.70
2017-11-12T09:53:09.640Z,8.70
2017-11-12T09:55:37.529Z,8.60
2017-11-12T09:58:06.193Z,8.60
2017-11-12T10:00:34.083Z,8.70
2017-11-12T10:03:01.852Z,8.60
2017-11-12T10:05:29.724Z,8.70
2017-11-12T10:07:57.733Z,8.80
2017-11-12T10:10:25.643Z,8.70
2017-11-12T10:12:53.612Z,8.70
2017-11-12T10:15:21.485Z,8.70
2017-11-12T10:17:49.431Z,8.70
2017-11-12T10:20:17.374Z,8.70
2017-11-12T10:22:45.369Z,8.80
2017-11-12T10:25:14.072Z,8.80
2017-11-12T10:27:42.066Z,8.80
2017-11-12T10:30:10.138Z,8.80
2017-11-12T10:32:38.800Z,8.80
2017-11-12T10:35:07.393Z,8.80
2017-11-12T10:37:35.167Z,8.80
2017-11-12T10:40:03.770Z,8.70
2017-11-12T10:42:31.901Z,8.70
2017-11-12T10:45:00.058Z,8.70
2017-11-12T10:47:28.306Z,8.70
2017-11-12T10:49:56.293Z,8.70
2017-11-12T10:52:24.194Z,8.60
2017-11-12T10:54:52.240Z,8.60
2017-11-12T10:57:20.331Z,8.60
2017-11-12T10:59:48.222Z,8.50
2017-11-12T11:02:16.747Z,8.50
2017-11-12T11:04:44.755Z,8.50
2017-11-12T11:07:12.624Z,8.50
2017-11-12T11:09:40.599Z,8.40
2017-11-12T11:12:08.494Z,8.40
2017-11-12T11:14:36.421Z,8.30
2017-11-12T11:17:04.299Z,8.30
2017-11-12T11:19:32.273Z,8.30
2017-11-12T11:22:00.512Z,8.30
2017-11-12T11:24:28.617Z,8.30
2017-11-12T11:26:57.185Z,8.30
2017-11-12T11:29:25.774Z,8.30
2017-11-12T11:31:54.361Z,8.30
2017-11-12T11:34:22.304Z,8.30
2017-11-12T11:36:50.198Z,8.30
2017-11-12T11:39:18.243Z,8.30
2017-11-12T11:41:46.186Z,8.30
2017-11-12T11:44:14.002Z,8.20
2017-11-12T11:46:42.697Z,8.20
2017-11-12T11:49:10.551Z,8.20
2017-11-12T11:51:38.804Z,8.20
2017-11-12T11:54:06.675Z,8.20
2017-11-12T11:56:34.645Z,8.20
2017-11-12T11:59:02.545Z,8.20
2017-11-12T12:01:31.291Z,8.10
2017-11-12T12:03:59.188Z,8.10
2017-11-12T12:06:27.365Z,8.10
2017-11-12T12:08:55.299Z,8.10
2017-11-12T12:11:23.079Z,8.10
2017-11-12T12:13:51.038Z,8.10
2017-11-12T12:16:18.931Z,8.10
2017-11-12T12:18:46.998Z,8.10
2017-11-12T12:21:15.963Z,8.10
2017-11-12T12:23:43.957Z,8.10
2017-11-12T12:26:12.322Z,8.10
2017-11-12T12:28:40.164Z,8.10
2017-11-12T12:31:08.168Z,8.10
2017-11-12T12:33:36.156Z,8.10
2017-11-12T12:36:04.917Z,8.10
2017-11-12T12:38:32.975Z,8.10
2017-11-12T12:41:00.716Z,8.10
2017-11-12T12:43:28.520Z,8.10
2017-11-12T12:45:58.008Z,8.10
2017-11-12T12:48:25.905Z,8.10
2017-11-12T12:50:53.779Z,8.10
2017-11-12T12:53:22.529Z,8.10
2017-11-12T12:55:50.424Z,8.10
2017-11-12T12:58:18.668Z,8.20
2017-11-12T13:00:46.727Z,8.10
2017-11-12T13:03:14.640Z,8.10
2017-11-12T13:05:42.890Z,8.10
2017-11-12T13:08:11.157Z,8.10
2017-11-12T13:10:38.990Z,8.10
2017-11-12T13:13:06.996Z,8.10
2017-11-12T13:15:34.881Z,8.10
2017-11-12T13:18:02.954Z,8.10
2017-11-12T13:20:31.122Z,8.10
2017-11-12T13:22:59.278Z,8.20
2017-11-12T13:25:27.689Z,8.20
2017-11-12T13:27:55.852Z,8.20
2017-11-12T13:30:23.897Z,8.20
2017-11-12T13:32:51.884Z,8.30
2017-11-12T13:35:20.045Z,8.30
2017-11-12T13:37:48.017Z,8.30
2017-11-12T13:40:15.997Z,8.30
2017-11-12T13:42:43.957Z,8.30
2017-11-12T13:45:11.819Z,8.40
2017-11-12T13:47:39.606Z,8.40
2017-11-12T13:50:07.485Z,8.50
2017-11-12T13:52:36.184Z,8.50
2017-11-12T13:55:04.924Z,8.50
2017-11-12T13:57:32.941Z,8.50
2017-11-12T14:00:01.585Z,8.60
2017-11-12T14:02:29.451Z,8.50
2017-11-12T14:04:57.438Z,8.60
2017-11-12T14:07:26.307Z,8.60
2017-11-12T14:09:55.032Z,8.60
2017-11-12T14:12:23.733Z,8.60
2017-11-12T14:14:51.779Z,8.60
2017-11-12T14:17:20.428Z,8.60
2017-11-12T14:19:48.396Z,8.60
2017-11-12T14:22:16.286Z,8.70
2017-11-12T14:24:44.187Z,8.80
2017-11-12T14:27:12.896Z,9.00
2017-11-12T14:29:40.915Z,9.00
2017-11-12T14:32:09.036Z,9.00
2017-11-12T14:34:38.033Z,9.00
2017-11-12T14:37:05.953Z,9.20
2017-11-12T14:39:34.002Z,9.20
2017-11-12T14:42:01.879Z,9.20
2017-11-12T14:44:29.752Z,9.20
2017-11-12T14:46:57.601Z,9.10
2017-11-12T14:49:25.526Z,9.10
2017-11-12T14:51:53.742Z,9.00
2017-11-12T14:54:21.658Z,8.90
2017-11-12T14:56:50.328Z,8.80
2017-11-12T14:59:18.990Z,8.80
2017-11-12T15:01:46.945Z,8.80
2017-11-12T15:04:14.917Z,8.80
2017-11-12T15:06:42.797Z,8.70
2017-11-12T15:09:10.676Z,8.70
2017-11-12T15:11:38.712Z,8.70
2017-11-12T15:14:06.679Z,8.70
2017-11-12T15:16:34.648Z,8.40
2017-11-12T15:19:02.425Z,7.60
2017-11-12T15:21:30.501Z,6.90
2017-11-12T15:23:58.502Z,6.50
2017-11-12T15:26:27.471Z,5.80
2017-11-12T15:28:56.157Z,5.40
2017-11-12T15:31:24.047Z,5.40
2017-11-12T15:33:52.715Z,4.90
2017-11-12T15:36:20.697Z,4.90
2017-11-12T15:38:49.487Z,5.00
2017-11-12T15:41:18.373Z,5.00
2017-11-12T15:43:46.921Z,5.00
2017-11-12T15:46:14.776Z,5.00
2017-11-12T15:48:42.758Z,5.00
2017-11-12T15:51:10.697Z,4.80
2017-11-12T15:53:38.687Z,4.70
2017-11-12T15:56:07.081Z,4.60
2017-11-12T15:58:35.041Z,4.50
2017-11-12T16:01:03.010Z,4.40
2017-11-12T16:03:30.981Z,4.40
2017-11-12T16:05:58.852Z,4.40
2017-11-12T16:08:26.654Z,4.40
2017-11-12T16:10:55.244Z,4.50
2017-11-12T16:13:23.005Z,4.40
2017-11-12T16:15:50.931Z,4.50
2017-11-12T16:18:18.948Z,4.40
2017-11-12T16:20:46.758Z,4.40
2017-11-12T16:23:14.629Z,4.50
2017-11-12T16:25:42.482Z,4.50
2017-11-12T16:28:10.249Z,4.50
2017-11-12T16:30:38.440Z,4.50
2017-11-12T16:33:06.419Z,4.50
2017-11-12T16:35:34.274Z,4.60
2017-11-12T16:38:02.430Z,4.60
2017-11-12T16:40:33.662Z,4.60
2017-11-12T16:43:01.684Z,4.60
2017-11-12T16:45:31.067Z,4.60
2017-11-12T16:47:59.046Z,4.60
2017-11-12T16:50:27.017Z,4.60
2017-11-12T16:52:54.788Z,4.70
2017-11-12T16:55:23.471Z,4.70
2017-11-12T16:57:52.732Z,4.70
2017-11-12T17:00:20.698Z,4.70
2017-11-12T17:02:48.549Z,4.70
2017-11-12T17:05:16.537Z,4.70
2017-11-12T17:07:44.426Z,4.70
2017-11-12T17:10:12.836Z,4.60
2017-11-12T17:12:41.712Z,4.50
2017-11-12T17:15:11.007Z,4.40
2017-11-12T17:17:38.875Z,4.40
2017-11-12T17:20:07.641Z,4.30
2017-11-12T17:22:35.525Z,4.40
2017-11-12T17:25:03.562Z,4.30
2017-11-12T17:27:31.547Z,4.30
2017-11-12T17:29:59.500Z,4.30
2017-11-12T17:32:27.376Z,4.20
2017-11-12T17:34:55.457Z,4.30
2017-11-12T17:37:24.167Z,4.30
2017-11-12T17:39:52.723Z,4.20
2017-11-12T17:42:20.604Z,4.30
2017-11-12T17:44:52.345Z,4.20
2017-11-12T17:47:20.340Z,4.20
2017-11-12T17:49:49.497Z,4.20
2017-11-12T17:52:17.389Z,4.20
2017-11-12T17:54:45.539Z,4.20
2017-11-12T17:57:13.406Z,4.20
2017-11-12T17:59:41.374Z,4.20
2017-11-12T18:02:09.341Z,4.20
2017-11-12T18:04:37.511Z,4.20
2017-11-12T18:07:05.503Z,4.20
2017-11-12T18:09:33.453Z,4.20
2017-11-12T18:12:02.368Z,4.20
2017-11-12T18:14:30.821Z,4.20
2017-11-12T18:16:58.688Z,4.20
2017-11-12T18:19:26.556Z,4.20
2017-11-12T18:21:54.525Z,4.30
2017-11-12T18:24:23.038Z,4.30
2017-11-12T18:26:51.704Z,4.20
2017-11-12T18:29:19.584Z,4.20
2017-11-12T18:31:47.548Z,4.20
2017-11-12T18:37:19.385Z,4.40
2017-11-12T18:39:47.343Z,4.40
2017-11-12T18:42:15.432Z,4.50
2017-11-12T18:44:43.323Z,4.60
2017-11-12T18:47:12.055Z,4.40
2017-11-12T18:49:40.355Z,4.40
2017-11-12T18:52:08.299Z,4.40
2017-11-12T18:54:36.481Z,4.50
2017-11-12T18:57:10.232Z,4.50
2017-11-12T18:59:54.099Z,4.40
2017-11-12T19:02:27.619Z,4.50
2017-11-12T19:05:11.587Z,4.40
2017-11-12T19:07:54.482Z,4.40
2017-11-12T19:10:22.392Z,4.50
2017-11-12T19:12:51.647Z,4.50
2017-11-12T19:15:19.771Z,4.50
2017-11-12T19:17:50.358Z,4.50
2017-11-12T19:20:29.304Z,4.50
2017-11-12T19:22:57.351Z,4.60
2017-11-12T19:25:25.495Z,4.60
2017-11-12T19:27:55.886Z,4.50
2017-11-12T19:30:24.786Z,4.50
2017-11-12T19:32:53.858Z,4.50
2017-11-12T19:35:22.622Z,4.50
2017-11-12T19:37:50.596Z,4.50
2017-11-12T19:40:18.479Z,4.60
2017-11-12T19:42:46.528Z,4.50
2017-11-12T19:45:14.609Z,4.60
2017-11-12T19:47:44.244Z,4.50
2017-11-12T19:50:12.585Z,4.60
2017-11-12T19:52:40.552Z,4.60
2017-11-12T19:55:08.625Z,4.60
2017-11-12T19:57:37.045Z,4.60
2017-11-12T20:00:05.712Z,4.40
2017-11-12T20:02:33.866Z,4.40
2017-11-12T20:05:01.940Z,4.50
2017-11-12T20:07:29.915Z,4.60
2017-11-12T20:09:57.971Z,4.60
2017-11-12T20:12:25.947Z,4.70
2017-11-12T20:14:54.153Z,4.60
2017-11-12T20:17:22.189Z,4.70
2017-11-12T20:19:50.602Z,4.70
2017-11-12T20:22:18.608Z,4.70
2017-11-12T20:24:46.539Z,4.70
2017-11-12T20:27:15.312Z,4.60
2017-11-12T20:29:43.416Z,4.60
2017-11-12T20:32:12.110Z,4.20
2017-11-12T20:34:41.062Z,4.20
2017-11-12T20:37:09.040Z,4.10
2017-11-12T20:39:37.094Z,4.10
2017-11-12T20:42:05.284Z,4.00
2017-11-12T20:44:33.349Z,4.00
2017-11-12T20:47:01.397Z,4.00
2017-11-12T20:49:29.609Z,4.00
2017-11-12T20:52:00.409Z,4.00
2017-11-12T20:54:28.479Z,4.00
2017-11-12T20:56:56.989Z,4.10
2017-11-12T20:59:26.365Z,4.20
2017-11-12T21:01:54.356Z,4.20
2017-11-12T21:04:25.234Z,4.20
2017-11-12T21:06:53.441Z,4.20
2017-11-12T21:09:21.412Z,4.20
2017-11-12T21:11:49.744Z,4.20
2017-11-12T21:14:18.547Z,4.10
2017-11-12T21:16:46.465Z,4.10
2017-11-12T21:19:32.023Z,4.10
2017-11-12T21:21:59.917Z,4.00
2017-11-12T21:24:31.581Z,4.00
2017-11-12T21:27:00.010Z,4.00
2017-11-12T21:29:38.162Z,3.90
2017-11-12T21:32:07.326Z,3.90
2017-11-12T21:34:37.364Z,3.90
2017-11-12T21:37:16.003Z,3.80
2017-11-12T21:39:44.068Z,3.70
2017-11-12T21:42:11.938Z,3.70
2017-11-12T21:44:40.134Z,3.60
2017-11-12T21:47:08.792Z,3.40
2017-11-12T21:49:36.842Z,3.40
2017-11-12T21:52:04.728Z,3.40
2017-11-12T21:54:34.026Z,3.40
2017-11-12T21:57:02.828Z,3.40
2017-11-12T21:59:31.593Z,3.60
2017-11-12T22:02:01.548Z,3.60
2017-11-12T22:04:29.767Z,3.70
2017-11-12T22:06:58.498Z,3.70
2017-11-12T22:09:27.031Z,3.70
2017-11-12T22:11:55.022Z,3.70
2017-11-12T22:14:25.339Z,3.80
2017-11-12T22:16:53.327Z,3.90
2017-11-12T22:19:21.299Z,3.90
2017-11-12T22:21:49.461Z,3.90
2017-11-12T22:24:17.703Z,3.90
2017-11-12T22:26:45.710Z,3.90
2017-11-12T22:29:13.671Z,3.90
2017-11-12T22:31:42.032Z,3.90
2017-11-12T22:34:10.506Z,3.80
2017-11-12T22:36:38.800Z,3.80
2017-11-12T22:39:06.858Z,3.80
2017-11-12T22:41:34.943Z,3.80
2017-11-12T22:44:02.898Z,3.80
2017-11-12T22:46:31.190Z,3.80
2017-11-12T22:48:59.181Z,3.80
2017-11-12T22:51:28.044Z,3.90
2017-11-12T22:53:56.417Z,3.90
2017-11-12T22:56:24.298Z,3.80
2017-11-12T22:58:52.385Z,3.80
2017-11-12T23:01:21.055Z,3.70
2017-11-12T23:03:49.105Z,3.70
2017-11-12T23:06:16.858Z,3.70
2017-11-12T23:08:45.169Z,3.70
2017-11-12T23:11:13.032Z,3.70
2017-11-12T23:13:40.980Z,3.70
2017-11-12T23:16:08.984Z,3.70
2017-11-12T23:18:37.544Z,3.60
2017-11-12T23:21:05.501Z,3.60
2017-11-12T23:23:33.529Z,3.70
2017-11-12T23:26:02.633Z,3.70
2017-11-12T23:28:30.453Z,3.70
2017-11-12T23:30:58.328Z,3.70
2017-11-12T23:33:26.385Z,3.70
2017-11-12T23:35:54.169Z,3.60
2017-11-12T23:38:23.041Z,3.60
2017-11-12T23:40:50.807Z,3.70
2017-11-12T23:43:18.568Z,3.70
2017-11-12T23:45:46.641Z,3.70
2017-11-12T23:48:14.398Z,3.60
2017-11-12T23:50:42.459Z,3.60
2017-11-12T23:53:10.526Z,3.60
2017-11-12T23:55:38.501Z,3.60
2017-11-12T23:58:06.994Z,3.60
